createdAt,value
2019-04-23T00:00:30.618Z,55.27
2019-04-23T00:02:34.361Z,55.08
2019-04-23T00:03:38.882Z,55.94
2019-04-23T00:04:35.445Z,56.32
2019-04-23T00:06:07.005Z,56.29
2019-04-23T00:06:43.915Z,56.01
2019-04-23T00:07:48.333Z,55.72
2019-04-23T00:08:51.345Z,55.82
2019-04-23T00:09:39.787Z,56.29
2019-04-23T00:10:33.466Z,56.29
2019-04-23T00:11:40.992Z,56.20
2019-04-23T00:12:44.171Z,56.67
2019-04-23T00:13:45.366Z,57.34
2019-04-23T00:14:48.074Z,57.63
2019-04-23T00:15:40.314Z,57.15
2019-04-23T00:16:38.202Z,57.43
2019-04-23T00:17:42.228Z,57.53
2019-04-23T00:18:42.683Z,57.53
2019-04-23T00:19:39.689Z,57.72
2019-04-23T00:20:43.063Z,58.48
2019-04-23T00:21:44.376Z,58.29
2019-04-23T00:22:43.818Z,58.39
2019-04-23T00:23:47.981Z,58.87
2019-04-23T00:24:56.864Z,58.48
2019-04-23T00:26:42.671Z,58.77
2019-04-23T00:28:42.190Z,59.51
2019-04-23T00:29:51.411Z,59.03
2019-04-23T00:30:50.229Z,59.60
2019-04-23T00:31:36.281Z,59.31
2019-04-23T00:33:34.290Z,59.41
2019-04-23T00:34:42.456Z,59.79
2019-04-23T00:35:38.937Z,59.51
2019-04-23T00:36:42.354Z,59.31
2019-04-23T00:37:35.325Z,59.41
2019-04-23T00:38:38.420Z,59.79
2019-04-23T00:39:42.362Z,59.22
2019-04-23T00:40:40.625Z,59.51
2019-04-23T00:41:47.472Z,59.89
2019-04-23T00:42:42.866Z,60.17
2019-04-23T00:43:51.165Z,60.55
2019-04-23T00:46:45.283Z,61.32
2019-04-23T00:47:38.765Z,61.22
2019-04-23T00:49:41.442Z,61.60
2019-04-23T00:50:44.777Z,61.22
2019-04-23T00:51:38.326Z,61.60
2019-04-23T00:52:44.146Z,61.51
2019-04-23T00:53:32.876Z,61.32
2019-04-23T00:54:39.708Z,61.29
2019-04-23T00:55:42.735Z,61.48
2019-04-23T00:56:47.592Z,61.38
2019-04-23T00:58:46.475Z,61.19
2019-04-23T00:59:46.850Z,61.29
2019-04-23T01:00:41.854Z,62.05
2019-04-23T01:01:42.747Z,62.43
2019-04-23T01:03:33.796Z,61.96
2019-04-23T01:04:46.055Z,61.86
2019-04-23T01:06:37.903Z,62.24
2019-04-23T01:07:40.042Z,61.96
2019-04-23T01:08:36.770Z,62.43
2019-04-23T01:09:39.372Z,62.52
2019-04-23T01:10:46.272Z,63.39
2019-04-23T01:11:38.907Z,63.10
2019-04-23T01:14:41.037Z,63.57
2019-04-23T01:15:42.639Z,63.67
2019-04-23T01:16:37.990Z,64.24
2019-04-23T01:18:46.829Z,63.76
2019-04-23T01:19:37.493Z,63.67
2019-04-23T01:20:48.594Z,63.54
2019-04-23T01:21:18.048Z,63.96
2019-04-23T01:22:17.339Z,63.76
2019-04-23T01:23:20.692Z,63.86
2019-04-23T01:24:21.919Z,63.73
2019-04-23T01:25:27.532Z,63.92
2019-04-23T01:26:34.377Z,64.21
2019-04-23T01:27:54.603Z,64.12
2019-04-23T01:29:42.856Z,64.87
2019-04-23T01:30:40.876Z,64.50
2019-04-23T01:31:41.052Z,64.59
2019-04-23T01:32:55.193Z,64.78
2019-04-23T01:34:51.629Z,64.59
2019-04-23T01:35:43.197Z,64.78
2019-04-23T01:36:36.456Z,64.87
2019-04-23T01:37:43.355Z,64.69
2019-04-23T01:38:45.521Z,65.26
2019-04-23T01:39:50.415Z,65.26
2019-04-23T01:40:40.367Z,64.69
2019-04-23T01:41:50.739Z,64.69
2019-04-23T01:43:41.081Z,65.45
2019-04-23T01:44:50.850Z,65.07
2019-04-23T01:45:35.573Z,64.78
2019-04-23T01:46:42.055Z,64.59
2019-04-23T01:47:45.388Z,65.07
2019-04-23T01:48:48.616Z,64.87
2019-04-23T01:50:01.890Z,64.97
2019-04-23T01:50:48.333Z,64.50
2019-04-23T01:51:49.670Z,64.97
2019-04-23T01:52:45.622Z,63.92
2019-04-23T01:53:45.559Z,64.12
2019-04-23T01:54:48.376Z,64.59
2019-04-23T01:56:41.659Z,64.50
2019-04-23T01:57:46.945Z,64.12
2019-04-23T01:58:45.094Z,64.12
2019-04-23T01:59:53.152Z,64.12
2019-04-23T02:00:41.236Z,64.78
2019-04-23T02:01:48.319Z,64.59
2019-04-23T02:02:49.951Z,64.78
2019-04-23T02:03:42.724Z,64.31
2019-04-23T02:04:45.996Z,64.59
2019-04-23T02:05:41.539Z,65.07
2019-04-23T02:06:45.071Z,64.87
2019-04-23T02:08:48.704Z,64.78
2019-04-23T02:09:51.574Z,64.59
2019-04-23T02:11:49.061Z,64.97
2019-04-23T02:12:54.010Z,64.59
2019-04-23T02:13:43.972Z,64.78
2019-04-23T02:14:44.793Z,65.26
2019-04-23T02:15:40.906Z,64.78
2019-04-23T02:16:44.117Z,65.55
2019-04-23T02:17:47.188Z,65.36
2019-04-23T02:18:45.451Z,65.83
2019-04-23T02:19:46.731Z,65.83
2019-04-23T02:20:43.107Z,65.83
2019-04-23T02:21:48.770Z,65.83
2019-04-23T02:22:38.198Z,65.83
2019-04-23T02:23:44.397Z,65.64
2019-04-23T02:24:47.918Z,65.83
2019-04-23T02:25:54.221Z,65.55
2019-04-23T02:26:46.760Z,66.02
2019-04-23T02:27:43.797Z,65.92
2019-04-23T02:28:46.319Z,65.55
2019-04-23T02:29:51.358Z,65.83
2019-04-23T02:32:05.182Z,66.02
2019-04-23T02:32:59.463Z,65.73
2019-04-23T02:33:53.438Z,66.78
2019-04-23T02:35:56.299Z,66.50
2019-04-23T02:37:02.163Z,66.59
2019-04-23T02:38:00.302Z,66.59
2019-04-23T02:41:57.969Z,66.40
2019-04-23T02:43:01.768Z,66.78
2019-04-23T02:43:51.021Z,66.78
2019-04-23T02:44:51.268Z,67.45
2019-04-23T02:45:58.795Z,66.66
2019-04-23T02:46:55.989Z,66.78
2019-04-23T02:47:55.405Z,67.13
2019-04-23T02:48:54.467Z,67.07
2019-04-23T02:50:01.572Z,67.55
2019-04-23T02:51:54.467Z,67.16
2019-04-23T02:52:47.120Z,67.26
2019-04-23T02:55:59.565Z,67.45
2019-04-23T02:57:50.384Z,68.02
2019-04-23T03:00:12.434Z,67.80
2019-04-23T03:01:18.294Z,68.08
2019-04-23T03:03:01.196Z,67.70
2019-04-23T03:06:08.929Z,68.08
2019-04-23T03:07:01.136Z,67.99
2019-04-23T03:09:51.810Z,68.65
2019-04-23T03:10:59.784Z,69.04
2019-04-23T03:14:12.143Z,69.23
2019-04-23T03:14:59.172Z,69.60
2019-04-23T03:16:04.173Z,69.51
2019-04-23T03:17:57.569Z,69.70
2019-04-23T03:18:53.626Z,69.51
2019-04-23T03:19:58.536Z,69.70
2019-04-23T03:21:05.905Z,69.13
2019-04-23T03:24:55.123Z,69.60
2019-04-23T03:26:14.081Z,69.79
2019-04-23T03:27:49.914Z,70.27
2019-04-23T03:28:57.646Z,70.27
2019-04-23T03:37:55.738Z,70.37
2019-04-23T03:40:59.491Z,70.47
2019-04-23T03:41:54.152Z,69.89
2019-04-23T03:43:02.376Z,70.27
2019-04-23T03:44:57.763Z,70.37
2019-04-23T03:46:54.816Z,69.89
2019-04-23T03:47:56.237Z,70.27
2019-04-23T03:49:55.687Z,70.27
2019-04-23T03:50:44.009Z,70.47
2019-04-23T03:52:44.386Z,70.65
2019-04-23T03:56:02.255Z,70.84
2019-04-23T03:57:12.524Z,71.03
2019-04-23T03:58:59.648Z,71.42
2019-04-23T04:00:34.381Z,71.32
2019-04-23T04:01:58.109Z,71.13
2019-04-23T04:04:45.148Z,71.80
2019-04-23T04:06:20.868Z,71.22
2019-04-23T04:07:05.432Z,71.42
2019-04-23T04:08:07.419Z,71.42
2019-04-23T04:09:03.144Z,72.08
2019-04-23T04:11:11.483Z,72.37
2019-04-23T04:11:50.600Z,72.27
2019-04-23T04:12:49.999Z,72.46
2019-04-23T04:14:01.178Z,72.17
2019-04-23T04:14:57.599Z,72.27
2019-04-23T04:18:01.603Z,73.03
2019-04-23T04:18:57.313Z,72.37
2019-04-23T04:23:09.355Z,73.03
2019-04-23T04:24:01.331Z,73.22
2019-04-23T04:24:52.049Z,73.70
2019-04-23T04:26:57.984Z,73.51
2019-04-23T04:28:12.294Z,73.80
2019-04-23T04:29:03.705Z,74.27
2019-04-23T04:29:54.972Z,74.18
2019-04-23T04:30:48.067Z,74.08
2019-04-23T04:31:52.143Z,74.08
2019-04-23T04:33:19.563Z,74.65
2019-04-23T04:35:12.929Z,74.94
2019-04-23T04:36:13.162Z,74.94
2019-04-23T04:37:18.476Z,74.46
2019-04-23T04:38:05.741Z,74.46
2019-04-23T04:39:03.074Z,74.37
2019-04-23T04:46:04.976Z,74.84
2019-04-23T04:46:50.529Z,74.75
2019-04-23T04:47:44.547Z,74.65
2019-04-23T04:48:56.875Z,74.75
2019-04-23T04:49:55.870Z,75.23
2019-04-23T04:52:11.354Z,75.42
2019-04-23T04:54:51.887Z,75.51
2019-04-23T04:55:55.638Z,75.23
2019-04-23T04:56:51.308Z,75.60
2019-04-23T04:57:55.980Z,75.32
2019-04-23T04:58:52.860Z,75.32
2019-04-23T05:00:01.734Z,75.70
2019-04-23T05:01:03.985Z,75.51
2019-04-23T05:02:03.721Z,75.13
2019-04-23T05:03:43.337Z,75.60
2019-04-23T05:04:55.974Z,75.84
2019-04-23T05:06:11.340Z,75.45
2019-04-23T05:07:02.486Z,74.98
2019-04-23T05:07:54.838Z,74.54
2019-04-23T05:08:58.538Z,73.77
2019-04-23T05:13:08.996Z,72.67
2019-04-23T05:13:54.875Z,72.57
2019-04-23T05:15:25.762Z,72.53
2019-04-23T05:15:55.111Z,72.44
2019-04-23T05:18:53.731Z,72.92
2019-04-23T05:20:07.408Z,73.33
2019-04-23T05:20:53.491Z,73.30
2019-04-23T05:21:55.730Z,73.21
2019-04-23T05:23:00.171Z,73.14
2019-04-23T05:24:48.495Z,73.14
2019-04-23T05:25:38.098Z,72.38
2019-04-23T05:26:39.217Z,72.86
2019-04-23T05:27:55.223Z,72.76
2019-04-23T05:29:54.386Z,73.24
2019-04-23T05:30:52.186Z,73.33
2019-04-23T05:31:42.684Z,72.86
2019-04-23T05:32:48.893Z,72.86
2019-04-23T05:33:56.870Z,72.57
2019-04-23T05:34:48.623Z,72.38
2019-04-23T05:36:09.104Z,72.48
2019-04-23T05:36:51.999Z,72.86
2019-04-23T05:38:02.560Z,72.28
2019-04-23T05:39:13.375Z,72.28
2019-04-23T05:39:49.271Z,72.76
2019-04-23T05:41:50.467Z,72.67
2019-04-23T05:42:49.866Z,72.57
2019-04-23T05:43:48.142Z,72.38
2019-04-23T05:44:50.276Z,72.48
2019-04-23T05:45:46.575Z,72.42
2019-04-23T05:46:49.084Z,71.91
2019-04-23T05:47:50.548Z,71.84
2019-04-23T05:48:58.043Z,72.03
2019-04-23T05:53:47.226Z,71.46
2019-04-23T05:54:52.398Z,72.23
2019-04-23T05:55:51.644Z,72.03
2019-04-23T05:57:44.646Z,71.75
2019-04-23T05:58:55.375Z,72.03
2019-04-23T05:59:46.929Z,71.27
2019-04-23T06:01:54.172Z,70.51
2019-04-23T06:02:53.867Z,71.12
2019-04-23T06:03:49.021Z,71.31
2019-04-23T06:06:54.189Z,71.31
2019-04-23T06:07:47.879Z,70.83
2019-04-23T06:08:46.020Z,70.54
2019-04-23T06:09:48.005Z,70.45
2019-04-23T06:10:53.925Z,70.10
2019-04-23T06:12:43.540Z,69.05
2019-04-23T06:13:56.327Z,68.86
2019-04-23T06:14:50.970Z,69.34
2019-04-23T06:15:46.779Z,68.96
2019-04-23T06:17:03.850Z,69.53
2019-04-23T06:17:46.647Z,68.10
2019-04-23T06:20:55.814Z,68.86
2019-04-23T06:22:51.158Z,68.32
2019-04-23T06:24:47.068Z,68.13
2019-04-23T06:25:57.675Z,68.99
2019-04-23T06:27:49.401Z,67.94
2019-04-23T06:28:48.733Z,68.32
2019-04-23T06:29:46.506Z,67.94
2019-04-23T06:31:01.670Z,67.18
2019-04-23T06:31:50.698Z,66.83
2019-04-23T06:32:42.864Z,66.31
2019-04-23T06:33:48.056Z,66.63
2019-04-23T06:34:56.590Z,66.16
2019-04-23T06:35:51.598Z,66.54
2019-04-23T06:36:46.050Z,66.35
2019-04-23T06:39:17.720Z,65.58
2019-04-23T06:39:48.340Z,66.54
2019-04-23T06:40:48.762Z,66.92
2019-04-23T06:41:53.083Z,66.25
2019-04-23T06:42:49.337Z,66.35
2019-04-23T06:43:54.695Z,65.01
2019-04-23T06:44:45.761Z,65.58
2019-04-23T06:45:45.572Z,65.52
2019-04-23T06:46:50.563Z,65.71
2019-04-23T06:47:52.739Z,64.95
2019-04-23T06:48:49.133Z,65.52
2019-04-23T06:50:54.561Z,65.42
2019-04-23T06:51:52.214Z,65.04
2019-04-23T06:52:39.794Z,64.37
2019-04-23T06:53:48.623Z,63.80
2019-04-23T06:54:51.320Z,64.02
2019-04-23T06:55:49.245Z,63.70
2019-04-23T06:56:53.021Z,64.69
2019-04-23T06:57:52.191Z,64.40
2019-04-23T06:58:42.904Z,63.06
2019-04-23T07:00:02.357Z,62.77
2019-04-23T07:00:52.479Z,62.68
2019-04-23T07:01:53.080Z,62.87
2019-04-23T07:02:51.265Z,62.68
2019-04-23T07:03:51.861Z,62.87
2019-04-23T07:05:12.162Z,62.87
2019-04-23T07:05:53.477Z,62.97
2019-04-23T07:06:58.184Z,63.83
2019-04-23T07:09:05.376Z,62.68
2019-04-23T07:09:43.880Z,63.57
2019-04-23T07:10:49.138Z,63.39
2019-04-23T07:11:43.017Z,62.43
2019-04-23T07:12:47.176Z,62.43
2019-04-23T07:13:53.482Z,62.04
2019-04-23T07:16:01.178Z,62.04
2019-04-23T07:16:46.971Z,62.74
2019-04-23T07:17:41.014Z,62.17
2019-04-23T07:18:48.939Z,61.11
2019-04-23T07:20:01.312Z,61.21
2019-04-23T07:20:49.308Z,61.79
2019-04-23T07:21:51.361Z,61.31
2019-04-23T07:22:53.777Z,61.02
2019-04-23T07:23:56.862Z,60.35
2019-04-23T07:24:47.347Z,60.57
2019-04-23T07:25:48.538Z,59.33
2019-04-23T07:26:55.784Z,60.09
2019-04-23T07:27:40.918Z,59.52
2019-04-23T07:29:09.992Z,59.61
2019-04-23T07:30:53.432Z,58.75
2019-04-23T07:31:52.171Z,59.04
2019-04-23T07:32:52.005Z,59.13
2019-04-23T07:33:52.214Z,58.59
2019-04-23T07:34:52.553Z,58.46
2019-04-23T07:35:47.662Z,59.16
2019-04-23T07:36:47.913Z,59.26
2019-04-23T07:37:48.636Z,58.11
2019-04-23T07:38:54.946Z,59.45
2019-04-23T07:39:58.978Z,60.99
2019-04-23T07:40:48.076Z,58.87
2019-04-23T07:41:57.541Z,58.11
2019-04-23T07:43:03.547Z,57.34
2019-04-23T07:43:54.755Z,57.92
2019-04-23T07:44:54.923Z,58.11
2019-04-23T07:45:55.179Z,57.92
2019-04-23T07:47:00.994Z,57.82
2019-04-23T07:47:53.498Z,57.92
2019-04-23T07:48:40.791Z,57.56
2019-04-23T07:49:48.888Z,57.56
2019-04-23T07:50:47.923Z,59.00
2019-04-23T07:51:55.125Z,57.65
2019-04-23T07:52:51.461Z,57.56
2019-04-23T07:53:53.520Z,56.89
2019-04-23T07:54:58.692Z,57.65
2019-04-23T07:55:53.173Z,57.08
2019-04-23T07:56:53.601Z,56.51
2019-04-23T07:57:49.555Z,56.22
2019-04-23T07:58:39.353Z,56.51
2019-04-23T07:59:48.735Z,56.60
2019-04-23T08:01:14.139Z,56.31
2019-04-23T08:01:49.174Z,56.48
2019-04-23T08:02:50.137Z,57.56
2019-04-23T08:03:48.185Z,57.18
2019-04-23T08:05:04.785Z,57.65
2019-04-23T08:05:44.066Z,57.37
2019-04-23T08:06:49.131Z,56.60
2019-04-23T08:07:54.222Z,55.74
2019-04-23T08:08:48.713Z,55.35
2019-04-23T08:09:53.194Z,56.02
2019-04-23T08:11:01.496Z,56.31
2019-04-23T08:12:02.890Z,56.73
2019-04-23T08:12:48.102Z,55.64
2019-04-23T08:14:55.298Z,56.34
2019-04-23T08:16:42.436Z,56.24
2019-04-23T08:17:43.094Z,56.53
2019-04-23T08:20:49.614Z,56.27
2019-04-23T08:21:46.310Z,56.46
2019-04-23T08:22:45.471Z,54.35
2019-04-23T08:23:49.636Z,55.02
2019-04-23T08:26:50.882Z,55.99
2019-04-23T08:27:45.221Z,55.41
2019-04-23T08:28:59.646Z,54.45
2019-04-23T08:29:36.323Z,54.77
2019-04-23T08:30:46.563Z,54.86
2019-04-23T08:31:50.381Z,53.42
2019-04-23T08:32:47.351Z,54.47
2019-04-23T08:33:49.709Z,54.57
2019-04-23T08:35:51.422Z,54.00
2019-04-23T08:36:50.017Z,52.65
2019-04-23T08:38:53.887Z,53.61
2019-04-23T08:40:55.650Z,53.92
2019-04-23T08:42:03.617Z,54.99
2019-04-23T08:42:52.807Z,52.77
2019-04-23T08:45:00.887Z,52.58
2019-04-23T08:45:46.291Z,52.58
2019-04-23T08:46:57.469Z,53.45
2019-04-23T08:47:59.132Z,52.20
2019-04-23T08:48:50.006Z,52.58
2019-04-23T08:49:56.726Z,52.58
2019-04-23T08:50:50.258Z,53.47
2019-04-23T08:51:57.058Z,53.09
2019-04-23T08:52:56.144Z,51.45
2019-04-23T08:53:47.998Z,51.35
2019-04-23T08:55:51.213Z,51.17
2019-04-23T08:56:50.386Z,52.03
2019-04-23T08:57:43.060Z,51.55
2019-04-23T08:58:43.616Z,51.64
2019-04-23T09:00:51.904Z,51.84
2019-04-23T09:01:58.034Z,50.20
2019-04-23T09:02:57.680Z,51.74
2019-04-23T09:03:39.173Z,51.07
2019-04-23T09:06:53.335Z,51.26
2019-04-23T09:07:58.532Z,51.67
2019-04-23T09:08:42.330Z,51.48
2019-04-23T09:09:50.863Z,50.99
2019-04-23T09:12:01.255Z,51.21
2019-04-23T09:13:32.094Z,52.85
2019-04-23T09:14:52.314Z,49.65
2019-04-23T09:15:51.508Z,50.54
2019-04-23T09:16:54.322Z,49.29
2019-04-23T09:17:47.625Z,48.71
2019-04-23T09:18:47.306Z,49.58
2019-04-23T09:20:05.378Z,49.19
2019-04-23T09:20:41.130Z,49.36
2019-04-23T09:21:59.224Z,48.33
2019-04-23T09:22:46.549Z,49.87
2019-04-23T09:23:46.937Z,50.45
2019-04-23T09:24:47.335Z,50.73
2019-04-23T09:25:47.803Z,51.43
2019-04-23T09:26:50.484Z,51.92
2019-04-23T09:27:45.232Z,50.47
2019-04-23T09:29:54.110Z,49.43
2019-04-23T09:30:49.257Z,49.91
2019-04-23T09:32:07.461Z,48.38
2019-04-23T09:32:44.965Z,48.66
2019-04-23T09:34:52.729Z,50.98
2019-04-23T09:35:48.643Z,50.11
2019-04-23T09:36:51.056Z,47.80
2019-04-23T09:37:47.196Z,48.66
2019-04-23T09:39:51.274Z,48.49
2019-04-23T09:41:43.570Z,47.60
2019-04-23T09:43:48.549Z,47.63
2019-04-23T09:44:58.099Z,48.30
2019-04-23T09:45:51.985Z,48.01
2019-04-23T09:47:53.802Z,47.63
2019-04-23T09:48:54.210Z,48.11
2019-04-23T09:49:50.201Z,46.49
2019-04-23T09:51:51.188Z,48.42
2019-04-23T09:53:01.635Z,47.55
2019-04-23T09:53:53.777Z,46.88
2019-04-23T09:56:01.546Z,48.25
2019-04-23T09:56:47.794Z,47.29
2019-04-23T09:57:54.015Z,46.13
2019-04-23T09:58:46.330Z,46.83
2019-04-23T10:01:39.365Z,46.06
2019-04-23T10:02:34.077Z,45.28
2019-04-23T10:03:36.329Z,45.28
2019-04-23T10:05:30.855Z,45.89
2019-04-23T10:06:24.959Z,46.27
2019-04-23T10:07:30.052Z,45.59
2019-04-23T10:08:27.933Z,44.05
2019-04-23T10:11:20.246Z,44.82
2019-04-23T10:12:22.028Z,43.95
2019-04-23T10:14:20.805Z,43.47
2019-04-23T10:16:23.355Z,45.04
2019-04-23T10:17:20.270Z,43.49
2019-04-23T10:18:20.266Z,42.91
2019-04-23T10:20:22.534Z,44.29
2019-04-23T10:21:21.477Z,42.91
2019-04-23T10:23:21.277Z,41.58
2019-04-23T10:24:21.066Z,41.77
2019-04-23T10:25:21.008Z,41.87
2019-04-23T10:26:21.871Z,42.16
2019-04-23T10:27:21.108Z,43.44
2019-04-23T10:28:22.130Z,42.66
2019-04-23T10:29:20.317Z,42.16
2019-04-23T10:31:20.936Z,42.49
2019-04-23T10:34:21.155Z,40.92
2019-04-23T10:35:30.350Z,42.20
2019-04-23T10:36:23.906Z,40.63
2019-04-23T10:37:31.946Z,40.83
2019-04-23T10:38:22.095Z,41.21
2019-04-23T10:39:25.844Z,41.21
2019-04-23T10:40:26.283Z,41.04
2019-04-23T10:41:20.400Z,41.72
2019-04-23T10:42:21.885Z,40.75
2019-04-23T10:43:20.734Z,40.46
2019-04-23T10:44:21.486Z,40.75
2019-04-23T10:45:37.019Z,40.67
2019-04-23T10:46:44.211Z,40.09
2019-04-23T10:47:45.364Z,40.89
2019-04-23T10:49:55.433Z,40.99
2019-04-23T10:51:06.191Z,40.40
2019-04-23T10:52:56.695Z,39.12
2019-04-23T10:53:56.987Z,38.95
2019-04-23T10:54:45.337Z,39.14
2019-04-23T10:56:53.580Z,39.61
2019-04-23T10:57:45.848Z,39.12
2019-04-23T10:58:46.168Z,38.73
2019-04-23T10:59:43.074Z,39.12
2019-04-23T11:01:04.459Z,40.31
2019-04-23T11:01:55.470Z,39.82
2019-04-23T11:03:11.971Z,39.14
2019-04-23T11:06:06.950Z,39.53
2019-04-23T11:06:53.624Z,39.41
2019-04-23T11:07:44.036Z,39.04
2019-04-23T11:08:50.128Z,39.04
2019-04-23T11:10:50.690Z,39.92
2019-04-23T11:11:52.587Z,39.36
2019-04-23T11:12:46.420Z,39.45
2019-04-23T11:14:49.943Z,38.96
2019-04-23T11:19:56.944Z,38.13
2019-04-23T11:21:58.426Z,37.28
2019-04-23T11:22:56.243Z,36.77
2019-04-23T11:23:51.880Z,36.46
2019-04-23T11:24:48.364Z,37.26
2019-04-23T11:25:42.796Z,36.77
2019-04-23T11:26:52.855Z,37.74
2019-04-23T11:28:20.928Z,38.89
2019-04-23T11:28:44.864Z,37.26
2019-04-23T11:31:09.347Z,39.03
2019-04-23T11:31:59.025Z,37.07
2019-04-23T11:33:00.817Z,36.89
2019-04-23T11:33:50.845Z,39.32
2019-04-23T11:36:01.305Z,35.63
2019-04-23T11:38:06.569Z,36.29
2019-04-23T11:38:54.569Z,38.83
2019-04-23T11:39:57.301Z,36.99
2019-04-23T11:40:41.790Z,37.37
2019-04-23T11:44:56.572Z,37.28
2019-04-23T11:49:14.554Z,36.32
2019-04-23T11:51:26.761Z,36.15
2019-04-23T11:52:08.411Z,37.80
2019-04-23T11:53:06.679Z,36.54
2019-04-23T11:54:53.721Z,34.77
2019-04-23T11:57:22.014Z,35.58
2019-04-23T11:57:59.380Z,35.58
2019-04-23T11:58:45.841Z,35.78
2019-04-23T12:00:05.625Z,35.80
2019-04-23T12:02:49.742Z,34.94
2019-04-23T12:03:58.717Z,34.14
2019-04-23T12:05:00.832Z,33.85
2019-04-23T12:05:50.376Z,34.22
2019-04-23T12:07:53.784Z,34.63
2019-04-23T12:12:44.737Z,34.05
2019-04-23T12:13:51.474Z,33.36
2019-04-23T12:14:48.040Z,33.46
2019-04-23T12:17:05.646Z,33.53
2019-04-23T12:17:55.921Z,34.90
2019-04-23T12:20:41.187Z,33.93
2019-04-23T12:21:53.183Z,34.42
2019-04-23T12:23:03.021Z,37.35
2019-04-23T12:24:01.182Z,35.97
2019-04-23T12:26:13.664Z,34.82
2019-04-23T12:26:53.869Z,35.23
2019-04-23T12:28:53.232Z,34.78
2019-04-23T12:32:01.851Z,33.02
2019-04-23T12:32:53.770Z,33.80
2019-04-23T12:33:51.982Z,32.53
2019-04-23T12:35:46.577Z,34.89
2019-04-23T12:36:45.488Z,34.01
2019-04-23T12:37:45.032Z,33.93
2019-04-23T12:38:49.513Z,32.96
2019-04-23T12:39:56.734Z,34.05
2019-04-23T12:40:52.633Z,33.07
2019-04-23T12:41:52.737Z,31.80
2019-04-23T12:43:49.994Z,31.99
2019-04-23T12:44:55.136Z,31.02
2019-04-23T12:45:56.567Z,32.29
2019-04-23T12:46:57.618Z,33.46
2019-04-23T12:48:15.759Z,30.63
2019-04-23T12:48:57.255Z,32.39
2019-04-23T12:52:05.116Z,30.70
2019-04-23T12:54:06.990Z,32.65
2019-04-23T12:55:43.941Z,33.62
2019-04-23T12:57:52.321Z,31.37
2019-04-23T12:58:41.556Z,32.82
2019-04-23T12:59:50.175Z,32.82
2019-04-23T13:00:39.560Z,34.01
2019-04-23T13:01:55.930Z,34.44
2019-04-23T13:03:45.517Z,33.28
2019-04-23T13:04:51.581Z,32.23
2019-04-23T13:05:36.059Z,33.89
2019-04-23T13:06:50.920Z,30.57
2019-04-23T13:09:53.190Z,31.15
2019-04-23T13:10:45.300Z,31.64
2019-04-23T13:11:49.942Z,31.15
2019-04-23T13:13:04.597Z,32.32
2019-04-23T13:13:56.391Z,30.18
2019-04-23T13:14:57.239Z,29.70
2019-04-23T13:15:48.541Z,30.38
2019-04-23T13:17:04.212Z,32.55
2019-04-23T13:18:49.624Z,30.41
2019-04-23T13:19:54.700Z,29.53
2019-04-23T13:20:42.601Z,30.90
2019-04-23T13:22:00.226Z,32.66
2019-04-23T13:22:57.754Z,31.21
2019-04-23T13:23:47.490Z,31.71
2019-04-23T13:24:40.761Z,28.67
2019-04-23T13:26:44.674Z,31.32
2019-04-23T13:28:02.745Z,30.04
2019-04-23T13:28:45.226Z,30.61
2019-04-23T13:30:01.063Z,28.57
2019-04-23T13:30:56.874Z,28.86
2019-04-23T13:31:52.338Z,27.77
2019-04-23T13:32:57.530Z,28.86
2019-04-23T13:35:02.606Z,29.80
2019-04-23T13:36:53.534Z,30.45
2019-04-23T13:38:00.161Z,30.65
2019-04-23T13:38:47.422Z,32.50
2019-04-23T13:39:52.978Z,30.96
2019-04-23T13:40:59.780Z,30.45
2019-04-23T13:41:45.803Z,30.45
2019-04-23T13:42:52.554Z,30.91
2019-04-23T13:43:47.861Z,31.70
2019-04-23T13:44:54.760Z,30.54
2019-04-23T13:46:49.491Z,31.15
2019-04-23T13:48:06.247Z,31.25
2019-04-23T13:48:47.025Z,30.37
2019-04-23T13:50:59.926Z,29.70
2019-04-23T13:51:47.232Z,29.02
2019-04-23T13:55:45.503Z,30.29
2019-04-23T13:57:25.749Z,30.69
2019-04-23T13:58:51.292Z,28.67
2019-04-23T13:59:54.057Z,27.84
2019-04-23T14:01:00.907Z,28.61
2019-04-23T14:01:46.654Z,29.18
2019-04-23T14:02:52.548Z,29.77
2019-04-23T14:03:50.584Z,29.79
2019-04-23T14:05:04.543Z,29.10
2019-04-23T14:05:51.203Z,29.98
2019-04-23T14:06:53.875Z,30.69
2019-04-23T14:07:54.536Z,29.53
2019-04-23T14:10:51.905Z,27.86
2019-04-23T14:11:47.900Z,29.61
2019-04-23T14:13:10.529Z,31.18
2019-04-23T14:14:22.378Z,28.53
2019-04-23T14:16:59.745Z,28.64
2019-04-23T14:18:17.022Z,27.94
2019-04-23T14:19:53.519Z,28.79
2019-04-23T14:20:47.237Z,29.46
2019-04-23T14:21:59.331Z,29.36
2019-04-23T14:25:06.052Z,31.25
2019-04-23T14:26:51.795Z,32.50
2019-04-23T14:27:58.285Z,32.29
2019-04-23T14:29:55.994Z,33.73
2019-04-23T14:30:59.269Z,33.64
2019-04-23T14:31:54.922Z,32.84
2019-04-23T14:32:54.257Z,33.54
2019-04-23T14:34:03.594Z,33.83
2019-04-23T14:35:04.241Z,33.44
2019-04-23T14:35:53.651Z,35.31
2019-04-23T14:37:00.996Z,34.76
2019-04-23T14:38:09.227Z,32.42
2019-04-23T14:38:54.473Z,32.42
2019-04-23T14:39:57.413Z,31.06
2019-04-23T14:41:04.621Z,31.46
2019-04-23T14:41:54.011Z,31.27
2019-04-23T14:43:04.303Z,32.86
2019-04-23T14:43:57.888Z,32.29
2019-04-23T14:45:04.902Z,29.56
2019-04-23T14:46:18.703Z,30.35
2019-04-23T14:47:59.129Z,29.61
2019-04-23T14:49:09.151Z,29.13
2019-04-23T14:50:17.088Z,29.14
2019-04-23T14:50:51.961Z,27.88
2019-04-23T14:51:49.735Z,28.45
2019-04-23T14:53:00.419Z,27.56
2019-04-23T14:53:47.908Z,28.36
2019-04-23T14:55:35.908Z,27.95
2019-04-23T14:55:56.900Z,27.37
2019-04-23T14:56:52.602Z,28.52
2019-04-23T14:58:00.389Z,29.02
2019-04-23T14:59:57.375Z,28.45
2019-04-23T15:01:07.594Z,28.83
2019-04-23T15:03:01.514Z,28.74
2019-04-23T15:03:50.528Z,28.44
2019-04-23T15:04:56.510Z,27.36
2019-04-23T15:06:05.018Z,28.91
2019-04-23T15:07:51.272Z,28.50
2019-04-23T15:08:58.610Z,28.58
2019-04-23T15:11:06.589Z,29.44
2019-04-23T15:12:04.842Z,30.11
2019-04-23T15:12:52.311Z,30.51
2019-04-23T15:13:51.948Z,30.41
2019-04-23T15:15:02.690Z,31.01
2019-04-23T15:16:02.597Z,30.10
2019-04-23T15:16:54.690Z,31.01
2019-04-23T15:18:01.731Z,30.42
2019-04-23T15:19:02.638Z,30.22
2019-04-23T15:21:10.224Z,30.94
2019-04-23T15:23:17.016Z,30.26
2019-04-23T15:24:00.465Z,30.57
2019-04-23T15:25:06.912Z,29.36
2019-04-23T15:26:41.147Z,29.47
2019-04-23T15:28:32.654Z,29.80
2019-04-23T15:29:47.426Z,29.70
2019-04-23T15:31:00.722Z,30.37
2019-04-23T15:31:55.720Z,29.10
2019-04-23T15:33:07.562Z,29.39
2019-04-23T15:34:00.954Z,29.11
2019-04-23T15:35:01.287Z,29.10
2019-04-23T15:36:12.945Z,29.67
2019-04-23T15:37:00.880Z,29.57
2019-04-23T15:38:26.740Z,29.46
2019-04-23T15:39:07.945Z,29.93
2019-04-23T15:40:04.316Z,31.02
2019-04-23T15:40:53.962Z,30.90
2019-04-23T15:41:59.221Z,30.99
2019-04-23T15:43:02.796Z,32.82
2019-04-23T15:43:57.135Z,31.67
2019-04-23T15:44:56.023Z,31.66
2019-04-23T15:45:53.914Z,32.15
2019-04-23T15:47:14.508Z,31.85
2019-04-23T15:47:56.510Z,32.55
2019-04-23T15:49:05.604Z,31.76
2019-04-23T15:50:03.540Z,32.63
2019-04-23T15:50:56.058Z,31.85
2019-04-23T15:53:56.438Z,32.16
2019-04-23T15:54:56.756Z,32.24
2019-04-23T15:56:07.512Z,32.13
2019-04-23T15:56:55.297Z,32.91
2019-04-23T15:59:02.842Z,33.09
2019-04-23T15:59:55.944Z,33.48
2019-04-23T16:00:59.040Z,33.86
2019-04-23T16:01:43.565Z,33.48
2019-04-23T16:02:24.335Z,34.33
2019-04-23T16:03:27.283Z,34.14
2019-04-23T16:04:24.360Z,34.80
2019-04-23T16:05:25.749Z,34.69
2019-04-23T16:06:27.232Z,35.10
2019-04-23T16:07:41.317Z,35.10
2019-04-23T16:09:05.360Z,35.88
2019-04-23T16:10:01.576Z,36.08
2019-04-23T16:10:54.555Z,35.23
2019-04-23T16:11:49.557Z,36.12
2019-04-23T16:12:56.823Z,34.08
2019-04-23T16:14:57.746Z,33.67
2019-04-23T16:15:58.024Z,34.16
2019-04-23T16:16:59.736Z,34.16
2019-04-23T16:18:01.477Z,34.25
2019-04-23T16:20:00.218Z,34.80
2019-04-23T16:20:54.559Z,35.27
2019-04-23T16:22:44.445Z,37.28
2019-04-23T16:23:50.337Z,38.02
2019-04-23T16:24:55.263Z,39.04
2019-04-23T16:25:49.809Z,39.72
2019-04-23T16:27:01.282Z,40.89
2019-04-23T16:27:56.252Z,40.48
2019-04-23T16:29:15.732Z,40.59
2019-04-23T16:30:06.252Z,40.40
2019-04-23T16:31:00.098Z,40.01
2019-04-23T16:32:04.233Z,40.67
2019-04-23T16:33:54.272Z,40.58
2019-04-23T16:34:56.139Z,41.55
2019-04-23T16:36:56.416Z,42.49
2019-04-23T16:38:00.920Z,43.07
2019-04-23T16:38:52.133Z,42.86